METAR Data
IDs: Format: Raw Decoded Include TAF

Data at: 0136 UTC 23 Apr 2021

YPKG 230130Z AUTO 03009KT 9999 // NCD 18/08 Q1024 RF00.0/000.0
YPKG 230100Z AUTO 03008KT 9999 // NCD 17/08 Q1024
YPKG 230030Z AUTO 04005KT 9999 // NCD 15/08 Q1024 RF00.0/000.0
YPKG 230000Z AUTO 04006KT 9999 // NCD 14/07 Q1024
YPKG 222330Z AUTO 11005KT 9999 // NCD 13/07 Q1023 RF00.0/000.0
YPKG 222300Z AUTO 12004KT 9999 // NCD 11/06 Q1023
YPKG 222230Z AUTO 13004KT 9999 // NCD 10/05 Q1023 RF00.0/000.0
YPKG 222200Z AUTO 13005KT 9999 // NCD 10/05 Q1023
YPKG 222130Z AUTO 15005KT 9999 // NCD 10/05 Q1023 RF00.0/000.0
YPKG 222100Z AUTO 13005KT 9999 // NCD 10/05 Q1023
YPKG 222030Z AUTO 14003KT 9999 // NCD 10/05 Q1022 RF00.0/000.0
YPKG 222000Z AUTO 14004KT 9999 // NCD 11/05 Q1022
YPKG 221930Z AUTO 12005KT 9999 // NCD 11/05 Q1022 RF00.0/000.0
YPKG 221900Z AUTO 14005KT 9999 // NCD 11/05 Q1022
YPKG 221830Z AUTO 15005KT 9999 // NCD 12/06 Q1023 RF00.0/000.0
YPKG 221800Z AUTO 14005KT 9999 // NCD 12/06 Q1023
YPKG 221730Z AUTO 13005KT 9999 // NCD 12/06 Q1023 RF00.0/000.0
YPKG 221700Z AUTO 13006KT 9999 // NCD 13/06 Q1023
YPKG 221630Z AUTO 13005KT 9999 // NCD 13/06 Q1023 RF00.0/000.0
YPKG 221600Z AUTO 14005KT 9999 // NCD 13/06 Q1023
YPKG 221530Z AUTO 13004KT 9999 // NCD 13/06 Q1023 RF00.0/000.0
YPKG 221500Z AUTO 15002KT 9999 // NCD 13/06 Q1023
YPKG 221430Z AUTO 16001KT 9999 // NCD 14/06 Q1023 RF00.0/000.0
YPKG 221400Z AUTO 13001KT 9999 // NCD 14/06 Q1023
YPKG 221330Z AUTO 12005KT 9999 // NCD 15/06 Q1023 RF00.0/000.0
YPKG 221300Z AUTO 13004KT 9999 // NCD 16/06 Q1023
YPKG 221230Z AUTO 14005KT 9999 // NCD 16/06 Q1023 RF00.0/000.0
YPKG 221200Z AUTO 15004KT 9999 // NCD 16/06 Q1023
YPKG 221130Z AUTO 15005KT 9999 // NCD 18/06 Q1023 RF00.0/000.0
YPKG 221100Z AUTO 16004KT 9999 // NCD 18/06 Q1023
YPKG 221030Z AUTO 16005KT 9999 // NCD 19/07 Q1023 RF00.0/000.0
YPKG 221000Z AUTO 15005KT 9999 // NCD 20/07 Q1022
YPKG 220930Z AUTO 15006KT 9999 // NCD 20/07 Q1022 RF00.0/000.0
YPKG 220900Z AUTO 10006KT 9999 // NCD 21/07 Q1022
YPKG 220830Z AUTO 12004KT 060V150 9999 // NCD 22/07 Q1022 RF00.0/000.0
YPKG 220800Z AUTO 15005KT 9999 // NCD 22/07 Q1022
YPKG 220730Z AUTO 11005KT 070V170 9999 // NCD 22/07 Q1022 RF00.0/000.0
YPKG 220700Z AUTO 10003KT 9999 // NCD 22/07 Q1022
YPKG 220630Z AUTO 08005KT 040V170 9999 // NCD 23/08 Q1022 RF00.0/000.0
YPKG 220600Z AUTO 09007KT 9999 // NCD 22/07 Q1022
YPKG 220530Z AUTO 12008KT 070V140 9999 // NCD 21/08 Q1022 RF00.0/000.0
YPKG 220500Z AUTO 09006KT 060V150 9999 // NCD 21/08 Q1023
YPKG 220430Z AUTO 04007KT 360V070 9999 // NCD 21/08 Q1024 RF00.0/000.0
YPKG 220400Z AUTO 04007KT 9999 // NCD 20/09 Q1024
YPKG 220330Z AUTO 05006KT 360V080 9999 // SCT036 19/09 Q1025
YPKG 220300Z AUTO 08007KT 9999 // SCT034 18/09 Q1025
YPKG 220230Z AUTO 05006KT 010V070 9999 // SCT031 19/09 Q1026
YPKG 220200Z AUTO 06008KT 9999 // NCD 18/09 Q1026
YPKG 220130Z AUTO 10009KT 9999 // NCD 17/10 Q1026 RF00.0/000.0
YPKG 220100Z AUTO 07009KT 9999 // NCD 16/10 Q1026
YPKG 220030Z AUTO 09007KT 9999 // NCD 15/09 Q1026 RF00.0/000.0
YPKG 220000Z AUTO 12007KT 9999 // NCD 13/09 Q1026
YPKG 212330Z AUTO 12007KT 9999 // NCD 12/08 Q1026 RF00.0/000.0
YPKG 212300Z AUTO 13005KT 9999 // NCD 10/07 Q1025
YPKG 212230Z AUTO 14005KT 9999 // NCD 10/07 Q1025 RF00.0/000.0
YPKG 212200Z AUTO 14005KT 9999 // NCD 10/07 Q1025
YPKG 212130Z AUTO 13005KT 9999 // NCD 10/06 Q1025 RF00.0/000.0
YPKG 212100Z AUTO 12003KT 9999 // NCD 10/06 Q1024
YPKG 212030Z AUTO 12005KT 9999 // NCD 10/06 Q1024 RF00.0/000.0
YPKG 212000Z AUTO 13005KT 9999 // NCD 10/06 Q1024
YPKG 211930Z AUTO 14004KT 9999 // NCD 11/07 Q1024 RF00.0/000.0
YPKG 211900Z AUTO 13007KT 9999 // NCD 12/07 Q1024
YPKG 211830Z AUTO 13008KT 9999 // NCD 13/07 Q1024 RF00.0/000.0
YPKG 211800Z AUTO 14007KT 9999 // NCD 13/07 Q1024
YPKG 211730Z AUTO 14008KT 9999 // NCD 13/07 Q1024 RF00.0/000.0
YPKG 211700Z AUTO 14007KT 9999 // NCD 13/07 Q1024
YPKG 211630Z AUTO 14006KT 9999 // NCD 14/07 Q1024 RF00.0/000.0
YPKG 211600Z AUTO 12003KT 9999 // NCD 13/06 Q1024
YPKG 211530Z AUTO 13005KT 9999 // NCD 14/06 Q1024 RF00.0/000.0
YPKG 211500Z AUTO 14007KT 9999 // NCD 15/06 Q1024
YPKG 211430Z AUTO 15006KT 9999 // NCD 15/06 Q1024 RF00.0/000.0
YPKG 211400Z AUTO 15007KT 9999 // NCD 16/05 Q1024